MMIO

Plan De Guadalupe International Airport

Saltillo, Mexico
TAF MMIO 180535Z 1806/1906 36010KT P6SM SCT040CB TEMPO 1807/1810 5SM -RA FM181800 33012KT P6SM SCT030 SCT080 PROB40 1822/1902 4SM TSRA BKN030CB OVC080 FM190500 08006KT P6SM SCT030 SCT080 BKN220
Issued Valid From Valid To
Jun-18 @ 05:35 UTC
(8 hours ago)
Jun-18 @ 06:00 UTC
(7 hours ago)
Jun-19 @ 06:00 UTC
(in 17 hours)
Jun-18 @ 06:00 to Jun-18 @ 18:00
TAF MMIO 180535Z 1806/1906 36010KT P6SM SCT040CB
Wind Visibility Clouds
360° at 10 knots Greater than 6 miles
  • Scattered at 4,000' AGL
Expired Click to View Jun-18 @ 07:00 to Jun-18 @ 10:00
TEMPO 1807/1810 5SM -RA
Visibility Conditions
5 miles
  • Light Rain
From Jun-18 @ 18:00 to Jun-19 @ 05:00
FM181800 33012KT P6SM SCT030 SCT080
Wind Visibility Clouds
330° at 12 knots Greater than 6 miles
  • Scattered at 3,000' AGL
  • Scattered at 8,000' AGL
Probable  (Probability 40%) Jun-18 @ 22:00 to Jun-19 @ 02:00
PROB40 1822/1902 4SM TSRA BKN030CB OVC080
Visibility Clouds Conditions
4 miles
  • Broken at 3,000' AGL
  • Overcast at 8,000' AGL
  • Thunderstorm
  • Rain
From Jun-19 @ 05:00 to Jun-19 @ 06:00
FM190500 08006KT P6SM SCT030 SCT080 BKN220
Wind Visibility Clouds
80° at 6 knots Greater than 6 miles
  • Scattered at 3,000' AGL
  • Scattered at 8,000' AGL
  • Broken at 22,000' AGL
TAF MMIO 180535Z 1806/1906 36010KT P6SM SCT040CB TEMPO 1807/1810 5SM -RA FM181800 33012KT P6SM SCT030 SCT080 PROB40 1822/1902 4SM TSRA BKN030CB OVC080 FM190500 08006KT P6SM SCT030 SCT080 BKN220
Issued Jun-18 @ 05:35 UTC
(8 hours ago)
Valid From Jun-18 @ 06:00 UTC
(7 hours ago)
Valid To Jun-19 @ 06:00 UTC
(in 17 hours)
Jun-18 @ 06:00 - Jun-18 @ 18:00
Wind Visibility
360° at 10 knots Greater than 6 miles
Clouds
  • Scattered at 4,000' AGL
Jun-18 @ 07:00 - Jun-18 @ 10:00
Conditions
  • Light Rain
From Jun-18 @ 18:00 - Jun-19 @ 05:00
Wind Visibility
330° at 12 knots Greater than 6 miles
Clouds
  • Scattered at 3,000' AGL
  • Scattered at 8,000' AGL
Probability 40% Probable Jun-18 @ 22:00 - Jun-19 @ 02:00
Clouds
  • Broken at 3,000' AGL
  • Overcast at 8,000' AGL
Conditions
  • Thunderstorm
  • Rain
From Jun-19 @ 05:00 - Jun-19 @ 06:00
Wind Visibility
80° at 6 knots Greater than 6 miles
Clouds
  • Scattered at 3,000' AGL
  • Scattered at 8,000' AGL
  • Broken at 22,000' AGL